createdAt,value
2017-09-14T00:00:13.106Z,90.00
2017-09-14T00:02:41.526Z,90.20
2017-09-14T00:05:07.787Z,90.00
2017-09-14T00:07:34.712Z,90.10
2017-09-14T00:10:00.961Z,90.10
2017-09-14T00:12:30.915Z,89.50
2017-09-14T00:14:59.480Z,89.60
2017-09-14T00:27:11.662Z,89.60
2017-09-14T00:29:37.841Z,89.50
2017-09-14T00:32:05.412Z,89.70
2017-09-14T00:34:31.584Z,88.50
2017-09-14T00:37:01.823Z,88.60
2017-09-14T00:39:44.590Z,88.60
2017-09-14T00:42:13.593Z,89.20
2017-09-14T00:44:40.082Z,88.60
2017-09-14T00:47:07.074Z,88.70
2017-09-14T00:49:34.898Z,89.30
2017-09-14T00:52:01.097Z,89.40
2017-09-14T00:54:29.132Z,89.90
2017-09-14T00:56:58.852Z,89.50
2017-09-14T00:59:27.170Z,89.30
2017-09-14T01:01:53.563Z,89.70
2017-09-14T01:04:20.959Z,89.90
2017-09-14T01:06:47.915Z,90.20
2017-09-14T01:09:16.323Z,90.30
2017-09-14T01:11:43.596Z,90.10
2017-09-14T01:14:10.562Z,90.30
2017-09-14T01:16:39.845Z,90.10
2017-09-14T01:19:07.887Z,90.10
2017-09-14T01:21:34.093Z,89.90
2017-09-14T01:33:45.676Z,88.60
2017-09-14T01:36:12.723Z,89.00
2017-09-14T01:38:40.354Z,89.30
2017-09-14T01:41:08.090Z,89.30
2017-09-14T01:43:39.381Z,90.00
2017-09-14T01:46:06.460Z,89.90
2017-09-14T01:58:18.469Z,90.50
2017-09-14T02:00:45.890Z,90.00
2017-09-14T02:03:12.800Z,90.60
2017-09-14T02:05:43.069Z,90.40
2017-09-14T02:08:10.773Z,90.80
2017-09-14T02:10:36.957Z,90.30
2017-09-14T02:13:04.186Z,90.40
2017-09-14T02:25:18.406Z,90.10
2017-09-14T02:27:44.942Z,90.00
2017-09-14T02:30:13.785Z,90.10
2017-09-14T02:32:39.986Z,90.10
2017-09-14T02:35:08.239Z,90.20
2017-09-14T02:37:36.742Z,90.10
2017-09-14T02:40:02.938Z,90.30
2017-09-14T02:42:29.216Z,90.10
2017-09-14T02:44:57.924Z,90.00
2017-09-14T02:57:10.270Z,89.10
2017-09-14T02:59:37.855Z,89.60
2017-09-14T03:02:09.263Z,89.80
2017-09-14T03:04:38.238Z,90.10
2017-09-14T03:07:05.256Z,89.60
2017-09-14T03:09:33.102Z,90.00
2017-09-14T03:11:59.295Z,89.60
2017-09-14T03:14:26.713Z,89.20
2017-09-14T03:16:54.159Z,89.20
2017-09-14T03:19:22.689Z,89.30
2017-09-14T03:21:48.895Z,88.30
2017-09-14T03:24:18.296Z,88.50
2017-09-14T03:26:45.501Z,88.50
2017-09-14T03:29:13.476Z,88.90
2017-09-14T03:31:40.728Z,89.30
2017-09-14T03:34:09.573Z,88.50
2017-09-14T03:36:36.682Z,88.60
2017-09-14T03:39:03.855Z,88.90
2017-09-14T03:41:32.167Z,88.60
2017-09-14T03:44:01.338Z,87.90
2017-09-14T03:46:30.252Z,88.00
2017-09-14T03:51:46.242Z,87.00
2017-09-14T03:54:14.103Z,87.30
2017-09-14T03:56:40.251Z,87.40
2017-09-14T03:59:09.234Z,87.70
2017-09-14T04:11:20.451Z,87.00
2017-09-14T04:13:46.663Z,86.90
2017-09-14T04:16:15.212Z,86.30
2017-09-14T04:18:42.460Z,88.30
2017-09-14T04:21:10.582Z,87.60
2017-09-14T04:23:37.061Z,87.70
2017-09-14T04:26:03.747Z,86.30
2017-09-14T04:28:32.087Z,86.50
2017-09-14T04:30:58.614Z,87.00
2017-09-14T04:33:26.076Z,87.50
2017-09-14T04:35:52.255Z,87.80
2017-09-14T04:38:20.982Z,86.80
2017-09-14T04:40:48.146Z,86.60
2017-09-14T04:43:15.035Z,86.60
2017-09-14T04:45:44.013Z,87.90
2017-09-14T04:48:12.677Z,86.90
2017-09-14T04:50:46.053Z,87.40
2017-09-14T04:53:12.807Z,87.00
2017-09-14T04:55:40.258Z,87.00
2017-09-14T04:58:07.718Z,87.20
2017-09-14T05:00:34.006Z,86.50
2017-09-14T05:03:01.824Z,86.60
2017-09-14T05:05:28.261Z,86.70
2017-09-14T05:07:55.391Z,86.30
2017-09-14T05:10:21.671Z,87.10
2017-09-14T05:12:50.722Z,87.10
2017-09-14T05:15:18.031Z,87.30
2017-09-14T05:17:44.291Z,87.50
2017-09-14T05:20:12.836Z,87.00
2017-09-14T05:22:39.788Z,88.00
2017-09-14T05:34:51.009Z,86.70
2017-09-14T05:37:17.916Z,87.40
2017-09-14T05:39:47.100Z,87.40
2017-09-14T05:42:13.282Z,86.80
2017-09-14T05:44:40.534Z,88.30
2017-09-14T05:47:10.749Z,88.10
2017-09-14T05:49:36.973Z,88.10
2017-09-14T05:52:04.743Z,87.80
2017-09-14T05:54:33.524Z,88.20
2017-09-14T05:56:59.696Z,87.60
2017-09-14T05:59:28.559Z,88.00
2017-09-14T06:01:56.183Z,87.20
2017-09-14T06:04:27.348Z,87.20
2017-09-14T06:06:57.887Z,86.80
2017-09-14T06:09:26.657Z,87.40
2017-09-14T06:11:52.881Z,87.10
2017-09-14T06:14:19.592Z,86.90
2017-09-14T06:16:45.779Z,87.40
2017-09-14T06:28:57.763Z,88.50
2017-09-14T06:31:24.078Z,88.40
2017-09-14T06:33:54.225Z,88.80
2017-09-14T06:36:23.786Z,87.60
2017-09-14T06:38:50.024Z,86.90
2017-09-14T06:41:16.574Z,87.50
2017-09-14T06:43:45.030Z,87.50
2017-09-14T06:46:12.101Z,88.10
2017-09-14T06:48:39.082Z,88.90
2017-09-14T06:51:07.973Z,88.10
2017-09-14T06:53:34.147Z,87.90
2017-09-14T06:56:01.297Z,88.00
2017-09-14T06:58:33.298Z,87.90
2017-09-14T07:01:01.874Z,88.70
2017-09-14T07:03:29.453Z,88.10
2017-09-14T07:05:58.028Z,88.10
2017-09-14T07:08:24.235Z,88.30
2017-09-14T07:10:51.192Z,88.90
2017-09-14T07:13:19.107Z,89.40
2017-09-14T07:15:45.314Z,89.90
2017-09-14T07:18:11.497Z,88.70
2017-09-14T07:20:39.458Z,88.70
2017-09-14T07:23:09.471Z,89.10
2017-09-14T07:25:36.653Z,88.70
2017-09-14T07:28:06.321Z,89.60
2017-09-14T07:30:33.529Z,88.70
2017-09-14T07:33:00.854Z,88.50
2017-09-14T07:35:28.252Z,89.50
2017-09-14T07:37:54.783Z,89.50
2017-09-14T07:40:23.782Z,89.00
2017-09-14T07:42:49.961Z,87.80
2017-09-14T07:45:17.188Z,87.60
2017-09-14T07:47:44.747Z,87.60
2017-09-14T07:50:13.393Z,87.90
2017-09-14T07:52:39.619Z,88.80
2017-09-14T07:55:06.750Z,88.10
2017-09-14T07:57:37.184Z,87.40
2017-09-14T08:00:04.160Z,88.30
2017-09-14T08:02:30.363Z,88.30
2017-09-14T08:04:59.267Z,89.10
2017-09-14T08:07:27.403Z,88.40
2017-09-14T08:09:53.941Z,88.40
2017-09-14T08:12:20.141Z,88.60
2017-09-14T08:14:48.274Z,88.40
2017-09-14T08:17:19.112Z,88.30
2017-09-14T08:19:45.369Z,88.30
2017-09-14T08:22:11.598Z,87.90
2017-09-14T08:24:37.746Z,88.40
2017-09-14T08:27:03.944Z,88.70
2017-09-14T08:29:30.733Z,89.10
2017-09-14T08:31:57.566Z,89.60
2017-09-14T08:34:24.130Z,89.10
2017-09-14T08:36:51.374Z,89.80
2017-09-14T08:39:19.425Z,89.70
2017-09-14T08:41:45.975Z,89.60
2017-09-14T08:44:14.170Z,89.50
2017-09-14T08:46:41.218Z,89.60
2017-09-14T08:49:10.587Z,90.00
2017-09-14T08:51:39.293Z,89.40
2017-09-14T08:54:06.267Z,89.00
2017-09-14T08:56:34.607Z,88.00
2017-09-14T08:59:01.746Z,87.20
2017-09-14T09:01:27.907Z,88.60
2017-09-14T09:03:54.534Z,87.60
2017-09-14T09:06:21.699Z,88.00
2017-09-14T09:08:49.217Z,86.80
2017-09-14T09:11:16.224Z,87.30
2017-09-14T09:13:42.480Z,87.80
2017-09-14T09:16:08.745Z,87.90
2017-09-14T09:18:36.975Z,87.90
2017-09-14T09:34:03.249Z,86.90
2017-09-14T09:36:30.228Z,87.20
2017-09-14T09:38:58.938Z,86.50
2017-09-14T09:41:26.756Z,86.50
2017-09-14T09:43:52.895Z,85.10
2017-09-14T09:46:19.841Z,84.80
2017-09-14T09:48:48.920Z,84.80
2017-09-14T09:51:15.102Z,84.20
2017-09-14T09:53:41.266Z,84.80
2017-09-14T09:56:07.430Z,84.90
2017-09-14T09:58:36.398Z,83.90
2017-09-14T10:01:02.550Z,83.80
2017-09-14T10:03:28.719Z,83.20
2017-09-14T10:05:56.010Z,84.00
2017-09-14T10:08:26.530Z,82.80
2017-09-14T10:10:52.683Z,81.00
2017-09-14T10:13:19.612Z,82.00
2017-09-14T10:15:45.783Z,82.00
2017-09-14T10:18:12.000Z,81.50
2017-09-14T10:20:39.991Z,80.90
2017-09-14T10:23:06.221Z,79.80
2017-09-14T10:25:33.698Z,79.30
2017-09-14T10:28:02.587Z,77.60
2017-09-14T10:30:28.853Z,76.20
2017-09-14T10:32:58.553Z,76.10
2017-09-14T10:35:25.746Z,74.50
2017-09-14T10:37:52.120Z,75.40
2017-09-14T10:40:20.155Z,72.20
2017-09-14T10:42:46.365Z,69.10
2017-09-14T10:45:13.301Z,65.00
2017-09-14T10:47:40.245Z,64.80
2017-09-14T10:50:08.098Z,64.80
2017-09-14T10:52:38.576Z,63.90
2017-09-14T10:55:09.027Z,67.20
2017-09-14T10:57:35.215Z,67.10
2017-09-14T11:00:01.427Z,64.90
2017-09-14T11:02:28.374Z,64.00
2017-09-14T11:04:57.494Z,63.90
2017-09-14T11:17:09.719Z,67.30
2017-09-14T11:19:38.663Z,66.80
2017-09-14T11:22:05.779Z,65.50
2017-09-14T11:24:33.737Z,68.80
2017-09-14T11:27:01.923Z,67.10
2017-09-14T11:29:29.852Z,69.70
2017-09-14T11:31:57.619Z,66.30
2017-09-14T11:34:23.870Z,65.80
2017-09-14T11:36:51.072Z,66.00
2017-09-14T11:39:21.575Z,67.10
2017-09-14T11:41:48.979Z,68.10
2017-09-14T11:44:15.544Z,69.20
2017-09-14T11:46:43.327Z,70.10
2017-09-14T11:49:12.313Z,70.10
2017-09-14T11:51:38.573Z,70.40
2017-09-14T11:54:07.991Z,70.80
2017-09-14T11:56:36.110Z,69.20
2017-09-14T11:59:02.283Z,71.20
2017-09-14T12:01:29.594Z,71.20
2017-09-14T12:03:56.585Z,72.40
2017-09-14T12:06:23.902Z,71.80
2017-09-14T12:08:54.692Z,72.40
2017-09-14T12:11:23.050Z,71.40
2017-09-14T12:13:50.845Z,72.00
2017-09-14T12:16:19.640Z,71.20
2017-09-14T12:18:46.624Z,71.80
2017-09-14T12:21:13.664Z,73.30
2017-09-14T12:23:39.846Z,73.90
2017-09-14T12:26:06.084Z,73.90
2017-09-14T12:28:32.328Z,72.70
2017-09-14T12:30:58.524Z,72.80
2017-09-14T12:33:25.047Z,70.20
2017-09-14T12:35:51.246Z,70.00
2017-09-14T12:38:21.060Z,69.20
2017-09-14T12:40:48.167Z,68.10
2017-09-14T12:43:14.387Z,67.50
2017-09-14T12:45:45.446Z,67.20
2017-09-14T12:48:11.655Z,67.10
2017-09-14T12:50:38.623Z,68.10
2017-09-14T12:53:05.591Z,67.90
2017-09-14T12:55:32.272Z,69.30
2017-09-14T12:57:59.051Z,68.00
2017-09-14T13:00:27.288Z,68.20
2017-09-14T13:02:53.664Z,67.10
2017-09-14T13:18:21.412Z,66.00
2017-09-14T13:20:47.676Z,65.50
2017-09-14T13:23:14.006Z,65.70
2017-09-14T13:25:42.097Z,66.40
2017-09-14T13:28:10.370Z,67.00
2017-09-14T13:30:38.079Z,66.60
2017-09-14T13:33:06.050Z,66.30
2017-09-14T13:35:33.358Z,65.00
2017-09-14T13:38:00.351Z,64.30
2017-09-14T13:40:26.539Z,66.00
2017-09-14T13:42:53.541Z,65.70
2017-09-14T13:45:20.530Z,64.90
2017-09-14T13:47:47.508Z,65.00
2017-09-14T13:50:13.685Z,64.70
2017-09-14T13:52:39.955Z,63.10
2017-09-14T13:55:06.156Z,63.10
2017-09-14T13:57:33.094Z,65.10
2017-09-14T13:59:59.578Z,62.80
2017-09-14T14:02:25.788Z,63.10
2017-09-14T14:04:51.998Z,61.40
2017-09-14T14:07:19.004Z,61.30
2017-09-14T14:09:46.162Z,60.60
2017-09-14T14:12:12.366Z,60.70
2017-09-14T14:14:39.000Z,61.00
2017-09-14T14:17:05.217Z,60.20
2017-09-14T14:19:31.724Z,56.50
2017-09-14T14:21:58.615Z,56.80
2017-09-14T14:24:24.864Z,56.80
2017-09-14T14:26:51.046Z,57.50
2017-09-14T14:29:17.977Z,57.50
2017-09-14T14:31:44.902Z,58.30
2017-09-14T14:34:11.060Z,58.80
2017-09-14T14:36:38.026Z,58.90
2017-09-14T14:39:04.235Z,60.50
2017-09-14T14:41:31.207Z,62.20
2017-09-14T14:43:59.447Z,62.00
2017-09-14T14:46:26.412Z,62.30
2017-09-14T14:48:52.602Z,61.60
2017-09-14T14:51:20.662Z,62.80
2017-09-14T14:53:46.865Z,61.40
2017-09-14T14:56:13.036Z,62.00
2017-09-14T14:58:40.091Z,62.50
2017-09-14T15:01:07.015Z,62.00
2017-09-14T15:03:33.295Z,61.10
2017-09-14T15:05:59.477Z,62.30
2017-09-14T15:08:25.645Z,61.00
2017-09-14T15:10:51.834Z,61.90
2017-09-14T15:13:18.884Z,61.50
2017-09-14T15:15:45.020Z,61.10
2017-09-14T15:18:11.262Z,61.80
2017-09-14T15:20:38.163Z,61.50
2017-09-14T15:23:04.362Z,61.50
2017-09-14T15:25:30.567Z,61.40
2017-09-14T15:27:58.944Z,62.30
2017-09-14T15:30:25.952Z,61.00
2017-09-14T15:32:52.697Z,59.30
2017-09-14T15:35:18.990Z,59.60
2017-09-14T15:37:51.166Z,60.20
2017-09-14T15:40:23.688Z,60.10
2017-09-14T15:42:57.718Z,60.40
2017-09-14T15:45:40.366Z,61.20
2017-09-14T15:48:12.750Z,60.30
2017-09-14T15:53:41.015Z,59.90
2017-09-14T15:56:07.953Z,58.50
2017-09-14T15:58:34.899Z,59.70
2017-09-14T16:01:01.934Z,60.60
2017-09-14T16:03:30.504Z,60.70
2017-09-14T16:05:56.844Z,62.40
2017-09-14T16:08:23.034Z,60.20
2017-09-14T16:10:49.236Z,60.70
2017-09-14T16:13:15.497Z,60.60
2017-09-14T16:15:41.675Z,60.10
2017-09-14T16:18:07.902Z,59.90
2017-09-14T16:20:34.849Z,60.70
2017-09-14T16:32:49.741Z,63.10
2017-09-14T16:35:17.220Z,65.80
2017-09-14T16:37:44.513Z,68.80
2017-09-14T16:40:10.951Z,68.70
2017-09-14T16:42:37.229Z,69.70
2017-09-14T16:45:03.394Z,71.60
2017-09-14T16:47:30.365Z,72.50
2017-09-14T16:49:58.233Z,72.50
2017-09-14T16:52:25.050Z,70.80
2017-09-14T16:54:52.005Z,72.80
2017-09-14T16:57:20.604Z,72.60
2017-09-14T16:59:46.820Z,72.90
2017-09-14T17:02:13.785Z,72.00
2017-09-14T17:04:40.004Z,72.50
2017-09-14T17:07:06.190Z,72.80
2017-09-14T17:09:34.363Z,73.30
2017-09-14T17:12:00.607Z,73.30
2017-09-14T17:14:27.532Z,74.00
2017-09-14T17:16:54.642Z,73.50
2017-09-14T17:19:20.991Z,74.00
2017-09-14T17:21:47.259Z,73.80
2017-09-14T17:24:15.619Z,74.40
2017-09-14T17:26:41.882Z,74.40
2017-09-14T17:29:10.647Z,73.60
2017-09-14T17:31:37.603Z,73.80
2017-09-14T17:34:03.800Z,73.40
2017-09-14T17:36:30.047Z,73.80
2017-09-14T17:38:56.818Z,73.50
2017-09-14T17:41:23.747Z,73.70
2017-09-14T17:43:50.818Z,74.20
2017-09-14T17:46:18.047Z,75.60
2017-09-14T17:48:44.288Z,73.30
2017-09-14T17:51:14.504Z,74.50
2017-09-14T17:53:42.255Z,75.60
2017-09-14T17:56:08.996Z,74.20
2017-09-14T17:58:36.215Z,74.30
2017-09-14T18:01:05.962Z,73.30
2017-09-14T18:03:33.759Z,73.50
2017-09-14T18:06:01.712Z,75.70
2017-09-14T18:08:30.559Z,78.30
2017-09-14T18:10:59.692Z,76.80
2017-09-14T18:13:25.960Z,74.80
2017-09-14T18:15:53.106Z,74.90
2017-09-14T18:18:20.106Z,76.00
2017-09-14T18:20:48.087Z,76.60
2017-09-14T18:23:15.265Z,77.50
2017-09-14T18:25:42.687Z,77.20
2017-09-14T18:28:09.925Z,77.30
2017-09-14T18:30:37.216Z,76.60
2017-09-14T18:33:04.699Z,78.50
2017-09-14T18:35:35.844Z,77.50
2017-09-14T18:38:04.130Z,78.30
2017-09-14T18:40:30.483Z,78.30
2017-09-14T18:42:57.342Z,78.80
2017-09-14T18:45:25.213Z,77.80
2017-09-14T18:47:59.685Z,79.60
2017-09-14T18:50:26.618Z,80.20
2017-09-14T18:52:54.054Z,81.50
2017-09-14T18:55:21.228Z,81.30
2017-09-14T18:57:49.699Z,81.10
2017-09-14T19:00:20.558Z,81.80
2017-09-14T19:02:46.773Z,80.50
2017-09-14T19:05:17.585Z,81.60
2017-09-14T19:07:48.855Z,80.70
2017-09-14T19:10:17.772Z,82.80
2017-09-14T19:12:45.912Z,82.80
2017-09-14T19:15:12.377Z,82.10
2017-09-14T19:27:23.991Z,82.80
2017-09-14T19:29:52.035Z,83.30
2017-09-14T19:32:24.160Z,82.80
2017-09-14T19:34:52.022Z,82.80
2017-09-14T19:37:19.466Z,82.80
2017-09-14T19:39:48.385Z,83.40
2017-09-14T19:42:18.233Z,83.30
2017-09-14T19:44:44.464Z,83.50
2017-09-14T19:47:14.213Z,83.10
2017-09-14T19:49:41.166Z,83.40
2017-09-14T19:52:09.034Z,83.50
2017-09-14T19:54:38.237Z,83.30
2017-09-14T19:57:07.155Z,82.60
2017-09-14T19:59:34.138Z,82.60
2017-09-14T20:02:01.820Z,82.60
2017-09-14T20:04:28.255Z,82.80
2017-09-14T20:06:58.101Z,82.60
2017-09-14T20:09:27.120Z,82.80
2017-09-14T20:11:55.771Z,83.50
2017-09-14T20:16:50.970Z,83.10
2017-09-14T20:19:21.120Z,82.80
2017-09-14T20:21:49.854Z,82.90
2017-09-14T20:24:19.840Z,83.10
2017-09-14T20:26:47.303Z,83.10
2017-09-14T20:29:14.625Z,82.90
2017-09-14T20:31:42.076Z,82.90
2017-09-14T20:34:10.559Z,83.50
2017-09-14T20:36:38.786Z,83.00
2017-09-14T20:39:08.795Z,84.10
2017-09-14T20:41:37.261Z,83.80
2017-09-14T20:44:05.468Z,84.10
2017-09-14T20:46:33.923Z,84.70
2017-09-14T20:49:00.513Z,84.50
2017-09-14T20:51:29.914Z,84.20
2017-09-14T20:53:56.155Z,84.90
2017-09-14T20:56:23.473Z,84.80
2017-09-14T20:58:49.813Z,84.80
2017-09-14T21:10:56.151Z,85.20
2017-09-14T21:13:23.258Z,85.40
2017-09-14T21:15:51.384Z,85.30
2017-09-14T21:18:18.561Z,84.90
2017-09-14T21:20:46.407Z,84.90
2017-09-14T21:23:12.708Z,85.40
2017-09-14T21:25:41.022Z,85.60
2017-09-14T21:28:08.173Z,85.60
2017-09-14T21:30:35.368Z,86.40
2017-09-14T21:33:02.703Z,86.50
2017-09-14T21:35:30.304Z,86.50
2017-09-14T21:37:57.364Z,87.00
2017-09-14T21:40:24.864Z,86.20
2017-09-14T21:42:51.248Z,86.60
2017-09-14T21:45:18.235Z,86.00
2017-09-14T21:47:46.677Z,87.10
2017-09-14T21:50:14.578Z,86.50
2017-09-14T21:52:43.826Z,86.50
2017-09-14T21:55:12.786Z,86.50
2017-09-14T22:07:20.864Z,86.50
2017-09-14T22:09:47.769Z,86.50
2017-09-14T22:12:14.932Z,86.00
2017-09-14T22:14:41.155Z,86.50
2017-09-14T22:17:08.650Z,86.20
2017-09-14T22:19:37.476Z,86.50
2017-09-14T22:22:07.213Z,86.50
2017-09-14T22:24:36.028Z,86.50
2017-09-14T22:27:04.097Z,86.20
2017-09-14T22:29:33.134Z,86.30
2017-09-14T22:32:00.292Z,85.50
2017-09-14T22:34:26.555Z,85.90
2017-09-14T22:36:52.771Z,86.00
2017-09-14T22:39:20.121Z,85.70
2017-09-14T22:41:48.824Z,85.60
2017-09-14T22:44:15.938Z,85.10
2017-09-14T22:46:45.765Z,85.00
2017-09-14T22:49:12.426Z,84.60
2017-09-14T22:51:39.711Z,85.50
2017-09-14T22:54:07.731Z,85.40
2017-09-14T22:56:33.971Z,85.90
2017-09-14T22:59:03.027Z,85.50
2017-09-14T23:01:30.418Z,84.30
2017-09-14T23:13:36.632Z,85.10
2017-09-14T23:16:05.636Z,85.00
2017-09-14T23:18:33.076Z,85.00
2017-09-14T23:21:01.883Z,85.30
2017-09-14T23:23:29.779Z,85.30
2017-09-14T23:35:36.808Z,85.50
2017-09-14T23:38:05.512Z,85.40
2017-09-14T23:40:32.765Z,85.20
2017-09-14T23:42:59.072Z,85.40
2017-09-14T23:45:27.028Z,85.50
2017-09-14T23:47:55.691Z,85.00
2017-09-14T23:50:23.056Z,84.30
2017-09-14T23:52:49.316Z,84.10
2017-09-14T23:55:16.073Z,84.80
2017-09-14T23:57:43.512Z,84.50
